Hauptseite
METAR-TAF:

METAR-TAF

Flughäfen :

Flughafen Wien-Schwechat

Wien, Österreich

Breite: 48-07N, Länge: 016-34E, Höhe: 183 m

Beobachtung

Neuester Wetterbericht von vor 16 Minuten, um 01:50 UTC
Wind 3 kt aus Süd
Temperatur 17°C
Luftfeuchtigkeit 72%
Luftdruck 1020 hPa
Sichtweite 10 km oder mehr
keine Wolken unter 1500 m und keine Kumulonimbus oder Gewitterwolken

METAR: LOWW 190150Z 17003KT CAVOK 17/12 Q1020 NOSIG

Zeit: 04:06 (02:06 UTC)

Prognose

Neuester Wetterbericht von vor 2 Stunden und 51 Minuten, um 23:15 UTC
Gültige Prognose vom 19 um 00 UTC bis 20 um 06 UTC
Wind 2 kt aus unterschiedlichen Richtungen
Sichtweite 10 km oder mehr
keine Wolken unter 1500 m und keine Kumulonimbus oder Gewitterwolken
Zeitweise
vom 19 um 11 UTC bis 19 um 15 UTC
Wind 7 kt aus Ost/Nordost

TAF: LOWW 182315Z 1900/2006 VRB02KT CAVOK TX33/1914Z TN18/1904Z TEMPO 1911/1915 06007KT

Wetterbeobachtungen und Prognosen von mehr als 4000 Flughäfen (METAR und TAF Bericht).

Die verfügbaren Stationen werden durch gelbe und rote Markierungen auf der Karte dargestellt.

Führen Sie die Maus auf sie, um den Namen der Station zu sehen.

Darauf klicken, um die Beobachtung von Wetterbeobachtungen und Prognosen zu sehen.

Um die Karte zu ändern : klicken Sie auf den grünen Tasten mit einem schwarzen Kreuz Zum Vergrößern, auf den grünen Button mit einem Gedankenstrich zu verkleinern, oder auf die grünen Pfeile für benachbarte Karten.


METAR-TAF: